ボードー の空港の天気 - METARとTAF

Bodo Vi ( ENBO / BOO ) - ノルウェー ヌールラン県ボードー
飛行場実況気象(Metar)
観測時間05/26 01:50 CEST (05/25 23:50 UTC)
風向・風速東南東 5m/s
視程10km以上
天気現象
少しの雲 雲底高度 910m
全天の4割程度の雲 雲底高度 6100m
気温7℃
湿度81%
気圧1029hPa
METARENBO 252350Z 12009KT 9999 FEW030 SCT200 07/04 Q1029
過去の天気等 Google飛行場航空写真 Wunderground天気予報

過去48時間のMETAR

飛行場予報(TAF)
発表時間: -
26日17時 CEST ~ 26日22時 CEST に一時的に
風向・風速西南西 4m/s
26日22時 CEST ~ 26日24時 CEST に徐々に
風向・風速西南西 8m/s
ENBO 2600/2624 10012KT 9999 FEW020 BKN200
TEMPO 2615/2620 25008KT
BECMG 2620/2622 25015KT